createdAt,value
2018-07-21T00:00:49.431Z,4.50
2018-07-21T00:03:17.219Z,4.20
2018-07-21T00:05:44.970Z,4.90
2018-07-21T00:08:12.687Z,4.73
2018-07-21T00:10:40.356Z,4.37
2018-07-21T00:13:08.086Z,4.40
2018-07-21T00:15:35.803Z,4.60
2018-07-21T00:18:03.531Z,5.10
2018-07-21T00:20:31.316Z,5.03
2018-07-21T00:22:59.090Z,4.93
2018-07-21T00:25:26.890Z,4.90
2018-07-21T00:27:54.614Z,4.50
2018-07-21T00:30:22.347Z,4.53
2018-07-21T00:32:50.122Z,5.50
2018-07-21T00:35:17.826Z,5.30
2018-07-21T00:37:45.538Z,5.67
2018-07-21T00:40:13.247Z,5.70
2018-07-21T00:42:41.006Z,6.00
2018-07-21T00:45:08.767Z,6.30
2018-07-21T00:47:36.606Z,4.83
2018-07-21T00:50:04.995Z,5.10
2018-07-21T00:52:32.830Z,6.43
2018-07-21T00:55:00.565Z,5.27
2018-07-21T00:57:28.326Z,4.83
2018-07-21T00:59:56.082Z,4.97
2018-07-21T01:02:23.951Z,5.03
2018-07-21T01:04:51.758Z,5.13
2018-07-21T01:07:19.631Z,5.97
2018-07-21T01:09:47.361Z,4.90
2018-07-21T01:12:15.141Z,4.93
2018-07-21T01:14:42.866Z,4.67
2018-07-21T01:17:10.683Z,5.40
2018-07-21T01:19:38.437Z,5.07
2018-07-21T01:22:06.454Z,5.70
2018-07-21T01:24:34.238Z,5.70
2018-07-21T01:27:01.962Z,5.53
2018-07-21T01:29:29.923Z,5.47
2018-07-21T01:31:57.826Z,4.73
2018-07-21T01:34:25.562Z,5.33
2018-07-21T01:36:53.265Z,5.50
2018-07-21T01:39:20.968Z,6.10
2018-07-21T01:41:48.780Z,5.20
2018-07-21T01:44:16.602Z,5.93
2018-07-21T01:46:44.424Z,5.90
2018-07-21T01:49:12.220Z,6.13
2018-07-21T01:51:39.999Z,5.60
2018-07-21T01:54:07.755Z,5.40
2018-07-21T01:56:35.479Z,5.53
2018-07-21T01:59:03.502Z,6.07
2018-07-21T02:01:31.347Z,5.87
2018-07-21T02:03:59.062Z,6.70
2018-07-21T02:06:26.746Z,5.50
2018-07-21T02:08:54.534Z,5.90
2018-07-21T02:11:22.201Z,5.77
2018-07-21T02:13:49.966Z,5.93
2018-07-21T02:16:17.730Z,6.37
2018-07-21T02:18:45.444Z,6.73
2018-07-21T02:21:13.163Z,6.87
2018-07-21T02:23:40.941Z,6.67
2018-07-21T02:26:08.674Z,6.13
2018-07-21T02:28:36.426Z,6.70
2018-07-21T02:31:04.251Z,5.60
2018-07-21T02:33:31.951Z,6.97
2018-07-21T02:35:59.675Z,8.70
2018-07-21T02:38:27.388Z,6.50
2018-07-21T02:40:55.109Z,5.47
2018-07-21T02:43:22.832Z,5.90
2018-07-21T02:45:50.563Z,6.30
2018-07-21T02:48:18.366Z,6.23
2018-07-21T02:50:46.102Z,6.70
2018-07-21T02:53:13.857Z,6.57
2018-07-21T02:55:41.584Z,5.70
2018-07-21T02:58:09.392Z,6.20
2018-07-21T03:00:37.100Z,6.43
2018-07-21T03:03:04.883Z,6.10
2018-07-21T03:05:32.636Z,5.77
2018-07-21T03:08:00.352Z,7.67
2018-07-21T03:10:28.168Z,7.47
2018-07-21T03:12:55.829Z,6.40
2018-07-21T03:15:23.579Z,6.10
2018-07-21T03:17:51.342Z,7.03
2018-07-21T03:20:19.088Z,6.47
2018-07-21T03:22:46.878Z,6.87
2018-07-21T03:25:14.584Z,6.50
2018-07-21T03:27:42.257Z,7.27
2018-07-21T03:30:09.962Z,6.70
2018-07-21T03:32:37.698Z,6.10
2018-07-21T03:35:05.430Z,5.87
2018-07-21T03:37:33.123Z,5.90
2018-07-21T03:40:00.996Z,6.60
2018-07-21T03:42:28.802Z,7.10
2018-07-21T03:44:56.584Z,6.37
2018-07-21T03:47:24.297Z,7.00
2018-07-21T03:49:52.012Z,7.07
2018-07-21T03:52:19.927Z,6.63
2018-07-21T03:54:47.566Z,6.90
2018-07-21T03:57:15.234Z,6.50
2018-07-21T03:59:42.987Z,6.47
2018-07-21T04:02:10.875Z,6.43
2018-07-21T04:04:38.655Z,6.60
2018-07-21T04:07:06.535Z,7.37
2018-07-21T04:09:34.327Z,7.50
2018-07-21T04:12:02.109Z,7.07
2018-07-21T04:14:29.874Z,7.43
2018-07-21T04:16:57.611Z,6.90
2018-07-21T04:19:25.472Z,7.30
2018-07-21T04:21:53.123Z,6.40
2018-07-21T04:24:20.784Z,6.43
2018-07-21T04:26:48.537Z,6.63
2018-07-21T04:29:16.346Z,6.90
2018-07-21T04:31:44.135Z,6.60
2018-07-21T04:34:11.809Z,6.93
2018-07-21T04:36:39.577Z,6.20
2018-07-21T04:39:08.907Z,6.67
2018-07-21T04:41:36.594Z,6.77
2018-07-21T04:44:04.874Z,6.83
2018-07-21T04:46:32.654Z,6.93
2018-07-21T04:49:00.417Z,7.40
2018-07-21T04:51:28.190Z,6.70
2018-07-21T04:53:55.968Z,7.40
2018-07-21T04:56:23.667Z,7.27
2018-07-21T04:58:51.415Z,6.77
2018-07-21T05:01:19.265Z,5.90
2018-07-21T05:03:47.010Z,8.70
2018-07-21T05:06:14.709Z,7.17
2018-07-21T05:08:42.460Z,6.93
2018-07-21T05:11:10.115Z,7.70
2018-07-21T05:13:37.790Z,6.80
2018-07-21T05:16:05.791Z,7.97
2018-07-21T05:18:33.574Z,6.43
2018-07-21T05:21:01.349Z,7.20
2018-07-21T05:23:29.118Z,6.63
2018-07-21T05:25:56.874Z,7.40
2018-07-21T05:28:24.667Z,7.00
2018-07-21T05:30:52.412Z,6.13
2018-07-21T05:33:20.134Z,6.20
2018-07-21T05:35:47.846Z,7.40
2018-07-21T05:38:15.569Z,7.30
2018-07-21T05:40:43.286Z,6.30
2018-07-21T05:43:11.026Z,7.40
2018-07-21T05:45:38.726Z,7.00
2018-07-21T05:48:06.462Z,6.40
2018-07-21T05:50:34.192Z,7.70
2018-07-21T05:53:01.959Z,6.30
2018-07-21T05:55:29.650Z,6.33
2018-07-21T05:57:57.314Z,7.03
2018-07-21T06:00:24.958Z,6.80
2018-07-21T06:02:52.700Z,6.70
2018-07-21T06:05:20.295Z,6.87
2018-07-21T06:07:48.083Z,6.70
2018-07-21T06:10:15.766Z,7.43
2018-07-21T06:12:43.542Z,7.20
2018-07-21T06:15:11.291Z,6.23
2018-07-21T06:17:39.042Z,6.50
2018-07-21T06:20:07.102Z,5.90
2018-07-21T06:22:34.929Z,5.73
2018-07-21T06:25:02.760Z,6.27
2018-07-21T06:27:30.494Z,6.27
2018-07-21T06:29:58.263Z,5.77
2018-07-21T06:32:26.072Z,5.67
2018-07-21T06:34:53.869Z,5.93
2018-07-21T06:37:21.594Z,5.67
2018-07-21T06:39:49.362Z,5.73
2018-07-21T06:42:17.095Z,6.03
2018-07-21T06:44:44.795Z,5.63
2018-07-21T06:47:12.587Z,6.70
2018-07-21T06:49:40.281Z,6.37
2018-07-21T06:52:08.067Z,5.27
2018-07-21T06:54:35.833Z,6.40
2018-07-21T06:57:03.584Z,6.00
2018-07-21T06:59:31.271Z,6.50
2018-07-21T07:01:58.980Z,6.57
2018-07-21T07:04:26.675Z,6.80
2018-07-21T07:06:54.377Z,5.87
2018-07-21T07:09:22.047Z,5.37
2018-07-21T07:11:49.796Z,6.33
2018-07-21T07:14:17.538Z,6.37
2018-07-21T07:16:45.310Z,6.10
2018-07-21T07:19:12.966Z,6.23
2018-07-21T07:21:40.638Z,6.50
2018-07-21T07:24:08.379Z,6.60
2018-07-21T07:26:36.043Z,6.60
2018-07-21T07:29:03.726Z,6.37
2018-07-21T07:31:31.338Z,5.87
2018-07-21T07:33:59.053Z,5.90
2018-07-21T07:36:26.783Z,5.90
2018-07-21T07:38:54.491Z,5.73
2018-07-21T07:41:22.233Z,5.90
2018-07-21T07:43:49.879Z,6.03
2018-07-21T07:46:17.613Z,5.53
2018-07-21T07:48:45.313Z,5.50
2018-07-21T07:51:12.994Z,5.57
2018-07-21T07:53:40.727Z,5.40
2018-07-21T07:56:08.403Z,6.70
2018-07-21T07:58:36.106Z,6.60
2018-07-21T08:01:03.846Z,7.40
2018-07-21T08:03:31.614Z,7.03
2018-07-21T08:05:59.282Z,6.47
2018-07-21T08:08:27.071Z,6.40
2018-07-21T08:10:54.731Z,5.70
2018-07-21T08:13:22.490Z,6.57
2018-07-21T08:15:50.272Z,6.17
2018-07-21T08:18:18.068Z,5.87
2018-07-21T08:20:45.735Z,5.80
2018-07-21T08:23:13.434Z,6.80
2018-07-21T08:25:41.082Z,6.03
2018-07-21T08:28:08.748Z,7.13
2018-07-21T08:30:36.436Z,7.37
2018-07-21T08:33:04.208Z,6.47
2018-07-21T08:35:31.877Z,6.77
2018-07-21T08:37:59.562Z,6.13
2018-07-21T08:40:27.198Z,7.27
2018-07-21T08:42:54.920Z,6.87
2018-07-21T08:45:22.606Z,7.63
2018-07-21T08:47:50.313Z,7.17
2018-07-21T08:50:18.198Z,6.77
2018-07-21T08:52:46.006Z,6.23
2018-07-21T08:55:13.766Z,6.50
2018-07-21T08:57:41.479Z,6.47
2018-07-21T09:00:09.143Z,7.70
2018-07-21T09:02:37.358Z,7.67
2018-07-21T09:05:05.419Z,6.30
2018-07-21T09:07:33.176Z,7.67
2018-07-21T09:10:00.911Z,7.77
2018-07-21T09:12:28.605Z,7.43
2018-07-21T09:14:56.364Z,7.30
2018-07-21T09:17:24.445Z,7.80
2018-07-21T09:19:52.476Z,8.20
2018-07-21T09:22:20.574Z,6.70
2018-07-21T09:24:48.818Z,7.50
2018-07-21T09:27:16.692Z,7.07
2018-07-21T09:29:44.542Z,7.37
2018-07-21T09:32:12.568Z,7.30
2018-07-21T09:34:40.326Z,6.93
2018-07-21T09:37:08.083Z,6.93
2018-07-21T09:39:35.743Z,7.30
2018-07-21T09:42:03.523Z,8.40
2018-07-21T09:44:31.331Z,8.70
2018-07-21T09:46:59.158Z,8.13
2018-07-21T09:49:26.932Z,8.93
2018-07-21T09:51:54.639Z,7.87
2018-07-21T09:54:22.409Z,8.80
2018-07-21T09:56:50.088Z,8.60
2018-07-21T09:59:17.792Z,7.40
2018-07-21T10:01:45.497Z,7.60
2018-07-21T10:04:13.206Z,8.53
2018-07-21T10:06:40.867Z,8.10
2018-07-21T10:09:09.715Z,7.70
2018-07-21T10:11:37.318Z,7.00
2018-07-21T10:14:05.642Z,7.13
2018-07-21T10:16:33.415Z,7.80
2018-07-21T10:19:01.180Z,7.53
2018-07-21T10:21:28.886Z,7.30
2018-07-21T10:24:01.153Z,7.67
2018-07-21T10:26:34.295Z,8.27
2018-07-21T10:29:07.215Z,7.40
2018-07-21T10:31:35.587Z,8.67
2018-07-21T10:34:03.245Z,8.30
2018-07-21T10:36:30.981Z,7.03
2018-07-21T10:38:58.687Z,8.77
2018-07-21T10:41:27.022Z,9.07
2018-07-21T10:43:55.103Z,7.80
2018-07-21T10:46:23.188Z,8.40
2018-07-21T10:48:51.603Z,9.13
2018-07-21T10:51:23.282Z,9.00
2018-07-21T10:53:51.014Z,9.90
2018-07-21T10:56:18.723Z,10.20
2018-07-21T10:58:46.519Z,9.47
2018-07-21T11:01:14.242Z,9.90
2018-07-21T11:03:41.939Z,11.67
2018-07-21T11:06:09.818Z,10.40
2018-07-21T11:08:37.816Z,11.80
2018-07-21T11:11:05.891Z,10.53
2018-07-21T11:13:33.675Z,12.00
2018-07-21T11:16:02.263Z,12.23
2018-07-21T11:18:30.031Z,14.07
2018-07-21T11:20:57.878Z,13.00
2018-07-21T11:23:25.709Z,12.60
2018-07-21T11:25:53.950Z,13.67
2018-07-21T11:28:21.736Z,13.97
2018-07-21T11:30:49.496Z,12.70
2018-07-21T11:33:17.214Z,13.23
2018-07-21T11:35:45.293Z,13.17
2018-07-21T11:38:12.978Z,14.13
2018-07-21T11:40:40.711Z,12.40
2018-07-21T11:43:08.734Z,11.50
2018-07-21T11:45:36.611Z,14.33
2018-07-21T11:48:04.660Z,13.20
2018-07-21T11:50:32.666Z,12.20
2018-07-21T11:53:00.340Z,13.10
2018-07-21T11:55:28.074Z,12.40
2018-07-21T11:57:55.779Z,11.57
2018-07-21T12:00:23.542Z,13.03
2018-07-21T12:02:51.267Z,12.07
2018-07-21T12:05:19.966Z,13.43
2018-07-21T12:07:47.681Z,12.20
2018-07-21T12:10:15.458Z,14.60
2018-07-21T12:12:43.172Z,12.60
2018-07-21T12:15:11.067Z,11.63
2018-07-21T12:17:38.763Z,14.10
2018-07-21T12:20:06.506Z,12.20
2018-07-21T12:22:34.251Z,11.20
2018-07-21T12:25:01.975Z,11.00
2018-07-21T12:27:29.619Z,12.10
2018-07-21T12:29:57.320Z,10.23
2018-07-21T12:32:25.062Z,10.63
2018-07-21T12:34:52.858Z,11.10
2018-07-21T12:37:20.575Z,11.90
2018-07-21T12:39:48.354Z,11.70
2018-07-21T12:42:16.188Z,11.13
2018-07-21T12:44:43.943Z,10.87
2018-07-21T12:47:11.985Z,10.63
2018-07-21T12:49:40.052Z,10.70
2018-07-21T12:52:08.520Z,11.00
2018-07-21T12:54:36.271Z,11.37
2018-07-21T12:57:04.270Z,11.00
2018-07-21T12:59:31.990Z,10.83
2018-07-21T13:01:59.791Z,9.77
2018-07-21T13:04:27.559Z,9.80
2018-07-21T13:06:55.317Z,10.60
2018-07-21T13:09:23.087Z,9.10
2018-07-21T13:11:50.926Z,9.63
2018-07-21T13:14:18.665Z,10.10
2018-07-21T13:16:46.379Z,10.37
2018-07-21T13:19:14.170Z,9.23
2018-07-21T13:21:41.903Z,10.07
2018-07-21T13:24:10.088Z,10.03
2018-07-21T13:26:37.824Z,9.07
2018-07-21T13:29:05.842Z,8.63
2018-07-21T13:31:33.565Z,9.10
2018-07-21T13:34:01.256Z,9.00
2018-07-21T13:36:28.918Z,8.03
2018-07-21T13:38:56.638Z,8.90
2018-07-21T13:41:24.368Z,8.20
2018-07-21T13:43:52.011Z,8.27
2018-07-21T13:46:19.701Z,7.90
2018-07-21T13:48:47.402Z,7.60
2018-07-21T13:51:15.138Z,8.93
2018-07-21T13:53:42.855Z,8.30
2018-07-21T13:56:10.599Z,7.63
2018-07-21T13:58:38.343Z,6.90
2018-07-21T14:01:06.383Z,7.60
2018-07-21T14:03:34.130Z,7.40
2018-07-21T14:06:01.895Z,6.90
2018-07-21T14:08:29.706Z,7.30
2018-07-21T14:10:57.427Z,6.60
2018-07-21T14:13:25.668Z,8.27
2018-07-21T14:15:54.026Z,6.87
2018-07-21T14:18:23.282Z,7.27
2018-07-21T14:20:51.091Z,7.70
2018-07-21T14:23:18.851Z,7.27
2018-07-21T14:25:46.571Z,7.50
2018-07-21T14:28:14.451Z,7.10
2018-07-21T14:30:42.298Z,7.73
2018-07-21T14:33:10.062Z,7.30
2018-07-21T14:35:37.802Z,7.20
2018-07-21T14:38:05.732Z,5.50
2018-07-21T14:40:33.606Z,8.47
2018-07-21T14:43:01.299Z,7.47
2018-07-21T14:45:29.055Z,7.90
2018-07-21T14:47:56.830Z,7.83
2018-07-21T14:50:24.751Z,7.60
2018-07-21T14:52:53.495Z,7.33
2018-07-21T14:55:21.234Z,7.00
2018-07-21T14:57:48.945Z,6.57
2018-07-21T15:00:16.651Z,7.33
2018-07-21T15:02:44.310Z,6.90
2018-07-21T15:05:12.159Z,7.27
2018-07-21T15:07:39.975Z,7.80
2018-07-21T15:10:07.702Z,6.20
2018-07-21T15:12:35.496Z,7.07
2018-07-21T15:15:03.290Z,6.30
2018-07-21T15:17:31.062Z,6.50
2018-07-21T15:19:59.058Z,6.57
2018-07-21T15:22:27.105Z,5.40
2018-07-21T15:24:54.879Z,5.90
2018-07-21T15:27:22.701Z,5.40
2018-07-21T15:29:50.404Z,5.47
2018-07-21T15:32:18.154Z,5.10
2018-07-21T15:34:45.899Z,6.43
2018-07-21T15:37:13.656Z,6.10
2018-07-21T15:39:41.427Z,6.63
2018-07-21T15:42:09.482Z,6.47
2018-07-21T15:44:38.274Z,5.97
2018-07-21T15:47:06.352Z,6.50
2018-07-21T15:49:34.110Z,7.10
2018-07-21T15:52:01.823Z,6.10
2018-07-21T15:54:29.564Z,6.53
2018-07-21T15:56:57.554Z,6.43
2018-07-21T15:59:26.007Z,7.30
2018-07-21T16:01:58.430Z,7.00
2018-07-21T16:04:26.280Z,6.03
2018-07-21T16:06:54.214Z,6.70
2018-07-21T16:09:21.928Z,7.47
2018-07-21T16:11:49.630Z,8.73
2018-07-21T16:14:17.269Z,11.33
2018-07-21T16:16:44.985Z,11.00
2018-07-21T16:19:12.748Z,10.03
2018-07-21T16:21:40.474Z,9.10
2018-07-21T16:24:08.219Z,9.40
2018-07-21T16:26:36.271Z,8.33
2018-07-21T16:29:04.359Z,7.60
2018-07-21T16:31:35.982Z,7.30
2018-07-21T16:34:03.878Z,7.13
2018-07-21T16:36:31.594Z,7.07
2018-07-21T16:39:01.156Z,6.70
2018-07-21T16:41:29.118Z,6.87
2018-07-21T16:43:56.890Z,7.77
2018-07-21T16:46:24.692Z,7.13
2018-07-21T16:48:52.394Z,7.10
2018-07-21T16:51:20.110Z,7.50
2018-07-21T16:53:47.923Z,7.53
2018-07-21T16:56:15.645Z,9.63
2018-07-21T16:58:43.368Z,8.53
2018-07-21T17:01:11.139Z,9.00
2018-07-21T17:03:38.803Z,8.10
2018-07-21T17:06:06.949Z,8.93
2018-07-21T17:08:34.768Z,9.17
2018-07-21T17:11:03.166Z,8.77
2018-07-21T17:13:30.907Z,9.60
2018-07-21T17:15:59.222Z,10.10
2018-07-21T17:18:26.874Z,10.07
2018-07-21T17:20:55.758Z,11.37
2018-07-21T17:23:23.467Z,11.30
2018-07-21T17:25:51.482Z,10.17
2018-07-21T17:28:19.231Z,9.40
2018-07-21T17:30:46.907Z,11.10
2018-07-21T17:33:15.553Z,9.87
2018-07-21T17:35:43.343Z,10.83
2018-07-21T17:38:11.034Z,10.63
2018-07-21T17:40:38.848Z,9.40
2018-07-21T17:43:06.638Z,10.70
2018-07-21T17:45:34.345Z,12.57
2018-07-21T17:48:02.118Z,11.83
2018-07-21T17:50:29.864Z,11.60
2018-07-21T17:52:58.212Z,11.97
2018-07-21T17:55:25.997Z,11.80
2018-07-21T17:57:53.721Z,12.23
2018-07-21T18:00:21.503Z,11.40
2018-07-21T18:02:49.189Z,12.30
2018-07-21T18:05:18.995Z,11.77
2018-07-21T18:07:46.700Z,10.13
2018-07-21T18:10:15.002Z,11.80
2018-07-21T18:12:43.309Z,12.50
2018-07-21T18:15:11.113Z,12.00
2018-07-21T18:17:39.104Z,12.27
2018-07-21T18:20:06.872Z,11.90
2018-07-21T18:22:34.594Z,11.20
2018-07-21T18:25:02.471Z,11.50
2018-07-21T18:27:30.170Z,10.77
2018-07-21T18:29:57.967Z,10.20
2018-07-21T18:32:25.656Z,10.77
2018-07-21T18:34:53.424Z,10.63
2018-07-21T18:37:21.551Z,10.40
2018-07-21T18:39:49.285Z,11.57
2018-07-21T18:42:17.004Z,10.47
2018-07-21T18:44:44.767Z,10.60
2018-07-21T18:47:12.620Z,12.10
2018-07-21T18:49:40.392Z,13.20
2018-07-21T18:52:08.588Z,11.83
2018-07-21T18:54:36.296Z,12.07
2018-07-21T18:57:04.524Z,11.70
2018-07-21T18:59:32.401Z,12.47
2018-07-21T19:02:00.315Z,12.17
2018-07-21T19:04:28.130Z,11.33
2018-07-21T19:06:56.300Z,11.50
2018-07-21T19:09:27.099Z,13.00
2018-07-21T19:12:02.952Z,12.97
2018-07-21T19:14:32.678Z,13.07
2018-07-21T19:17:02.985Z,13.57
2018-07-21T19:19:36.806Z,13.30
2018-07-21T19:22:05.876Z,13.13
2018-07-21T19:24:35.386Z,14.90
2018-07-21T19:27:10.357Z,13.10
2018-07-21T19:29:40.460Z,12.30
2018-07-21T19:32:15.648Z,14.33
2018-07-21T19:34:46.450Z,13.20
2018-07-21T19:37:21.576Z,12.90
2018-07-21T19:39:51.199Z,13.77
2018-07-21T19:42:19.241Z,14.47
2018-07-21T19:44:47.018Z,12.40
2018-07-21T19:47:14.690Z,14.03
2018-07-21T19:49:42.396Z,13.40
2018-07-21T19:52:10.146Z,13.60
2018-07-21T19:54:37.955Z,12.93
2018-07-21T19:57:06.086Z,12.53
2018-07-21T19:59:33.813Z,13.13
2018-07-21T20:02:01.425Z,13.43
2018-07-21T20:04:29.134Z,12.87
2018-07-21T20:06:57.027Z,12.70
2018-07-21T20:09:24.970Z,12.30
2018-07-21T20:11:52.694Z,11.87
2018-07-21T20:14:20.602Z,13.67
2018-07-21T20:16:48.237Z,13.23
2018-07-21T20:19:16.043Z,13.37
2018-07-21T20:21:43.804Z,12.93
2018-07-21T20:24:11.659Z,13.87
2018-07-21T20:26:39.322Z,13.57
2018-07-21T20:29:07.201Z,13.40
2018-07-21T20:31:34.954Z,13.63
2018-07-21T20:34:02.806Z,12.73
2018-07-21T20:36:30.622Z,12.67
2018-07-21T20:38:58.340Z,12.30
2018-07-21T20:41:26.111Z,10.63
2018-07-21T20:43:53.882Z,9.83
2018-07-21T20:46:21.648Z,10.63
2018-07-21T20:48:49.362Z,10.37
2018-07-21T20:51:17.822Z,8.83
2018-07-21T20:53:45.773Z,9.23
2018-07-21T20:56:13.451Z,10.83
2018-07-21T20:58:41.222Z,10.90
2018-07-21T21:01:08.899Z,11.47
2018-07-21T21:03:37.135Z,10.30
2018-07-21T21:06:04.910Z,11.30
2018-07-21T21:08:32.722Z,9.50
2018-07-21T21:11:00.600Z,10.50
2018-07-21T21:13:28.307Z,8.53
2018-07-21T21:15:56.516Z,8.27
2018-07-21T21:18:24.294Z,7.63
2018-07-21T21:20:52.295Z,9.70
2018-07-21T21:23:20.110Z,8.70
2018-07-21T21:25:47.845Z,8.03
2018-07-21T21:28:15.699Z,9.27
2018-07-21T21:30:44.353Z,10.20
2018-07-21T21:33:12.071Z,8.70
2018-07-21T21:35:40.091Z,9.67
2018-07-21T21:38:08.210Z,9.23
2018-07-21T21:40:35.984Z,8.80
2018-07-21T21:43:04.025Z,9.40
2018-07-21T21:45:31.938Z,8.53
2018-07-21T21:47:59.785Z,9.17
2018-07-21T21:50:27.627Z,9.10
2018-07-21T21:52:55.371Z,8.23
2018-07-21T21:55:23.756Z,10.87
2018-07-21T21:57:51.815Z,12.13
2018-07-21T22:00:19.605Z,12.07
2018-07-21T22:02:47.726Z,11.70
2018-07-21T22:05:15.419Z,11.00
2018-07-21T22:07:43.333Z,12.20
2018-07-21T22:10:11.474Z,11.40
2018-07-21T22:12:39.474Z,11.20
2018-07-21T22:15:12.146Z,12.50
2018-07-21T22:17:39.844Z,12.17
2018-07-21T22:20:07.551Z,13.53
2018-07-21T22:22:35.254Z,12.50
2018-07-21T22:25:02.997Z,13.03
2018-07-21T22:27:30.751Z,12.30
2018-07-21T22:29:58.461Z,12.93
2018-07-21T22:32:26.183Z,10.97
2018-07-21T22:34:53.883Z,11.70
2018-07-21T22:37:21.612Z,10.47
2018-07-21T22:39:49.426Z,11.10
2018-07-21T22:42:17.095Z,9.90
2018-07-21T22:44:44.875Z,11.70
2018-07-21T22:47:12.664Z,11.47
2018-07-21T22:49:40.350Z,11.33
2018-07-21T22:52:08.001Z,11.67
2018-07-21T22:54:35.699Z,10.50
2018-07-21T22:57:03.446Z,11.90
2018-07-21T22:59:31.171Z,11.30
2018-07-21T23:01:58.867Z,11.87
2018-07-21T23:04:26.585Z,12.63
2018-07-21T23:06:54.246Z,11.90
2018-07-21T23:09:21.960Z,11.47
2018-07-21T23:11:49.771Z,11.57
2018-07-21T23:14:17.534Z,13.33
2018-07-21T23:16:45.334Z,11.90
2018-07-21T23:19:13.184Z,12.17
2018-07-21T23:21:40.914Z,13.10
2018-07-21T23:24:08.658Z,14.30
2018-07-21T23:26:36.541Z,13.73
2018-07-21T23:29:04.306Z,15.50
2018-07-21T23:31:32.055Z,14.10
2018-07-21T23:33:59.810Z,16.67
2018-07-21T23:36:27.629Z,16.20
2018-07-21T23:38:55.459Z,15.90
2018-07-21T23:41:23.234Z,18.90
2018-07-21T23:43:51.025Z,18.80
2018-07-21T23:46:18.769Z,18.97
2018-07-21T23:48:46.556Z,18.63
2018-07-21T23:51:14.240Z,17.27
2018-07-21T23:53:41.938Z,20.23
2018-07-21T23:56:09.641Z,19.33
2018-07-21T23:58:37.359Z,19.00
